Penryn, Pennsylvania
Current Conditions -  °F | °C
As of 4:39 AM on Thursday 23 Oct 2014 (Local Time) from KLNS Reporting Station
Overcast Overcast  
Wind Chill: 11°   Ceiling: 2700
Heat Index: 11°   Visibility: 10mi
Dew Point:   Wind: 9mph
Humidity: 71%   Direction: 330°NNW
Pressure: 29.83"   Gusts: 18mph
Location:  40.2°N, 76.37°W
Report Text: KLNS 230839Z AUTO 33008G16KT 10SM BKN027 OVC050 11/06 A2983 RMK AO2 PK WND 34026/0809 T01060056
Loading
Personal Weather Stations






























Interactive Weather Map
Tropical Storm Tracking
New forecast layout! Learn more

10-Day Weather Forecast

Advertisements
Track Severe Weather on mobile